< < Back
Terminal Aerodrome Forecast


Current Version              Previous Versions:   1  2  3  4  5  6  7  8  9  

Terminal Aerodrome Forecast

923
FTUS42 KFFC 271726
TAFPDK
TAF
KPDK 271726Z 2718/2818 VRB04KT P6SM BKN035
     FM272100 22005KT P6SM VCSH BKN035
      TEMPO 2800/2803 VRB15G25KT 3SM -TSRA BKN025CB
     FM280400 20005KT P6SM BKN040
     FM280500 VRB03KT P6SM SCT020 BKN080
     FM281000 VRB03KT P6SM BKN015
     FM281400 16003KT P6SM BKN025=



Latest METAR

570
SAUS70 KWBC 281600 RRG
MTRPDK
METAR KPDK 281553Z 21004KT 10SM FEW038 BKN120 26/20 A3023 RMK AO2 SLP222
T02610200


USA.gov is the U.S. government's official web portal to all federal, state and local government web resources and services.